createdAt,value
2022-09-14T00:01:44.405Z,17.90
2022-09-14T00:04:13.753Z,17.90
2022-09-14T00:06:42.542Z,17.80
2022-09-14T00:09:14.821Z,17.80
2022-09-14T00:11:43.112Z,17.90
2022-09-14T00:14:11.370Z,17.90
2022-09-14T00:16:40.558Z,18.00
2022-09-14T00:19:17.196Z,18.00
2022-09-14T00:21:45.412Z,17.90
2022-09-14T00:24:13.662Z,17.90
2022-09-14T00:26:41.779Z,17.90
2022-09-14T00:29:10.025Z,18.00
2022-09-14T00:31:39.603Z,18.00
2022-09-14T00:34:09.067Z,18.00
2022-09-14T00:36:42.425Z,18.00
2022-09-14T00:39:10.680Z,18.00
2022-09-14T00:41:40.059Z,18.00
2022-09-14T00:44:29.201Z,18.00
2022-09-14T00:46:58.612Z,18.00
2022-09-14T00:49:27.781Z,18.00
2022-09-14T00:51:59.792Z,18.00
2022-09-14T00:54:28.332Z,18.00
2022-09-14T00:56:59.213Z,18.00
2022-09-14T00:59:29.073Z,18.00
2022-09-14T01:01:57.311Z,18.00
2022-09-14T01:04:25.622Z,18.00
2022-09-14T01:06:57.512Z,18.00
2022-09-14T01:09:30.711Z,18.00
2022-09-14T01:12:03.147Z,18.00
2022-09-14T01:14:35.363Z,18.00
2022-09-14T01:17:07.179Z,18.00
2022-09-14T01:19:43.711Z,18.10
2022-09-14T01:22:14.480Z,18.00
2022-09-14T01:24:48.011Z,18.10
2022-09-14T01:27:25.071Z,18.10
2022-09-14T01:29:58.122Z,18.00
2022-09-14T01:32:28.797Z,17.90
2022-09-14T01:35:00.072Z,17.90
2022-09-14T01:37:30.828Z,17.80
2022-09-14T01:40:02.654Z,17.60
2022-09-14T01:42:33.822Z,17.60
2022-09-14T01:45:04.741Z,17.60
2022-09-14T01:47:37.041Z,17.50
2022-09-14T01:50:08.651Z,17.50
2022-09-14T01:52:41.557Z,17.50
2022-09-14T01:55:11.882Z,17.50
2022-09-14T01:57:43.680Z,17.50
2022-09-14T02:00:13.552Z,17.40
2022-09-14T02:02:43.947Z,17.30
2022-09-14T02:05:16.181Z,17.30
2022-09-14T02:07:44.462Z,17.30
2022-09-14T02:10:14.067Z,17.30
2022-09-14T02:12:44.080Z,17.30
2022-09-14T02:15:14.308Z,17.20
2022-09-14T02:17:42.772Z,17.10
2022-09-14T02:20:14.907Z,17.10
2022-09-14T02:22:43.276Z,17.10
2022-09-14T02:25:11.566Z,17.00
2022-09-14T02:27:40.681Z,17.00
2022-09-14T02:30:18.970Z,17.00
2022-09-14T02:32:52.567Z,16.90
2022-09-14T02:35:24.117Z,17.00
2022-09-14T02:38:11.140Z,16.90
2022-09-14T02:40:41.082Z,16.90
2022-09-14T02:43:20.244Z,17.00
2022-09-14T02:45:53.914Z,17.00
2022-09-14T02:48:24.243Z,17.00
2022-09-14T02:50:57.125Z,17.00
2022-09-14T02:53:27.945Z,16.90
2022-09-14T02:56:00.367Z,16.80
2022-09-14T02:58:35.317Z,16.80
2022-09-14T03:01:05.675Z,16.70
2022-09-14T03:03:35.743Z,16.70
2022-09-14T03:06:04.386Z,16.70
2022-09-14T03:08:32.747Z,16.70
2022-09-14T03:11:00.933Z,16.70
2022-09-14T03:13:29.248Z,16.60
2022-09-14T03:15:57.518Z,16.60
2022-09-14T03:18:27.103Z,16.50
2022-09-14T03:20:55.257Z,16.50
2022-09-14T03:23:23.437Z,16.50
2022-09-14T03:25:51.607Z,16.50
2022-09-14T03:28:19.753Z,16.60
2022-09-14T03:30:48.006Z,16.50
2022-09-14T03:33:16.647Z,16.50
2022-09-14T03:35:46.328Z,16.50
2022-09-14T03:38:14.807Z,16.40
2022-09-14T03:40:42.885Z,16.50
2022-09-14T03:43:12.538Z,16.40
2022-09-14T03:45:40.884Z,16.40
2022-09-14T03:48:09.251Z,16.50
2022-09-14T03:50:37.550Z,16.40
2022-09-14T03:53:07.173Z,16.40
2022-09-14T03:55:35.453Z,16.40
2022-09-14T03:58:05.173Z,16.40
2022-09-14T04:00:34.833Z,16.50
2022-09-14T04:03:03.876Z,16.40
2022-09-14T04:05:34.812Z,16.40
2022-09-14T04:08:03.763Z,16.40
2022-09-14T04:10:34.681Z,16.40
2022-09-14T04:13:03.277Z,16.40
2022-09-14T04:16:08.755Z,16.50
2022-09-14T04:18:38.402Z,16.40
2022-09-14T04:21:08.789Z,16.50
2022-09-14T04:23:51.366Z,16.50
2022-09-14T04:26:29.500Z,16.50
2022-09-14T04:29:16.083Z,16.60
2022-09-14T04:31:44.749Z,16.60
2022-09-14T04:34:13.938Z,16.60
2022-09-14T04:36:42.266Z,16.70
2022-09-14T04:39:12.793Z,16.70
2022-09-14T04:41:42.514Z,16.70
2022-09-14T04:44:10.952Z,16.60
2022-09-14T04:46:46.229Z,16.60
2022-09-14T04:49:16.788Z,16.60
2022-09-14T04:51:45.549Z,16.60
2022-09-14T04:54:15.051Z,16.50
2022-09-14T04:56:46.812Z,16.50
2022-09-14T04:59:16.821Z,16.50
2022-09-14T05:01:45.638Z,16.50
2022-09-14T05:04:14.280Z,16.50
2022-09-14T05:06:43.438Z,16.70
2022-09-14T05:09:13.789Z,16.70
2022-09-14T05:11:44.519Z,16.70
2022-09-14T05:14:15.979Z,16.70
2022-09-14T05:16:44.679Z,16.60
2022-09-14T05:19:13.539Z,16.70
2022-09-14T05:21:41.814Z,16.60
2022-09-14T05:24:14.945Z,16.70
2022-09-14T05:26:45.182Z,16.60
2022-09-14T05:29:16.788Z,16.60
2022-09-14T05:31:46.393Z,16.70
2022-09-14T05:34:14.489Z,16.70
2022-09-14T05:36:43.194Z,16.70
2022-09-14T05:39:11.891Z,16.70
2022-09-14T05:41:40.138Z,16.70
2022-09-14T05:44:08.579Z,16.70
2022-09-14T05:46:38.535Z,16.70
2022-09-14T05:49:07.178Z,16.70
2022-09-14T05:51:36.679Z,16.70
2022-09-14T05:54:09.567Z,16.80
2022-09-14T05:56:39.289Z,16.80
2022-09-14T05:59:07.559Z,16.70
2022-09-14T06:01:39.677Z,16.70
2022-09-14T06:04:11.393Z,16.70
2022-09-14T06:06:39.539Z,16.70
2022-09-14T06:09:07.988Z,16.70
2022-09-14T06:11:38.509Z,16.70
2022-09-14T06:14:07.688Z,16.80
2022-09-14T06:16:37.140Z,16.70
2022-09-14T06:19:08.138Z,16.70
2022-09-14T06:21:36.576Z,16.70
2022-09-14T06:24:06.309Z,16.70
2022-09-14T06:26:34.588Z,16.70
2022-09-14T06:29:05.238Z,16.80
2022-09-14T06:31:33.369Z,16.80
2022-09-14T06:34:01.665Z,16.80
2022-09-14T06:36:48.459Z,16.70
2022-09-14T06:39:18.577Z,16.60
2022-09-14T06:41:46.849Z,16.70
2022-09-14T06:44:15.398Z,16.70
2022-09-14T06:46:47.629Z,16.70
2022-09-14T06:49:20.770Z,16.70
2022-09-14T06:51:48.837Z,16.80
2022-09-14T06:54:19.346Z,16.80
2022-09-14T06:57:06.157Z,16.80
2022-09-14T06:59:35.751Z,16.90
2022-09-14T07:02:06.309Z,17.00
2022-09-14T07:04:34.398Z,17.00
2022-09-14T07:07:04.264Z,16.90
2022-09-14T07:09:34.599Z,17.00
2022-09-14T07:12:03.530Z,16.90
2022-09-14T07:14:32.482Z,16.90
2022-09-14T07:17:01.185Z,16.90
2022-09-14T07:19:30.829Z,16.90
2022-09-14T07:21:59.018Z,16.80
2022-09-14T07:24:27.100Z,16.80
2022-09-14T07:26:57.100Z,16.90
2022-09-14T07:29:25.229Z,16.90
2022-09-14T07:31:54.565Z,17.00
2022-09-14T07:34:24.038Z,17.00
2022-09-14T07:36:52.408Z,17.00
2022-09-14T07:39:21.758Z,17.00
2022-09-14T07:41:49.847Z,17.00
2022-09-14T07:44:19.441Z,17.00
2022-09-14T07:46:47.808Z,17.00
2022-09-14T07:49:17.227Z,17.10
2022-09-14T07:51:46.878Z,17.10
2022-09-14T07:54:16.578Z,17.00
2022-09-14T07:56:46.100Z,17.10
2022-09-14T08:02:06.215Z,17.10
2022-09-14T08:04:36.630Z,16.90
2022-09-14T08:07:04.765Z,16.90
2022-09-14T08:09:32.918Z,17.00
2022-09-14T08:12:01.435Z,17.00
2022-09-14T08:14:29.810Z,17.00
2022-09-14T08:16:58.202Z,16.90
2022-09-14T08:19:28.295Z,16.90
2022-09-14T08:21:56.731Z,16.90
2022-09-14T08:24:24.765Z,16.90
2022-09-14T08:26:54.059Z,17.00
2022-09-14T08:29:22.273Z,16.90
2022-09-14T08:31:52.246Z,16.90
2022-09-14T08:34:21.135Z,17.00
2022-09-14T08:36:50.828Z,16.90
2022-09-14T08:39:19.358Z,16.90
2022-09-14T08:41:50.716Z,16.90
2022-09-14T08:44:24.177Z,16.90
2022-09-14T08:46:56.998Z,17.00
2022-09-14T08:49:32.470Z,17.10
2022-09-14T08:52:22.828Z,17.10
2022-09-14T08:54:55.519Z,17.10
2022-09-14T08:57:27.378Z,17.10
2022-09-14T08:59:58.710Z,17.20
2022-09-14T09:02:43.482Z,17.20
2022-09-14T09:05:26.805Z,17.30
2022-09-14T09:07:58.166Z,17.30
2022-09-14T09:10:28.414Z,17.30
2022-09-14T09:12:59.489Z,17.40
2022-09-14T09:15:29.469Z,17.30
2022-09-14T09:18:00.564Z,17.30
2022-09-14T09:20:31.620Z,17.30
2022-09-14T09:23:05.687Z,17.40
2022-09-14T09:25:42.556Z,17.30
2022-09-14T09:28:12.139Z,17.40
2022-09-14T09:31:00.564Z,17.40
2022-09-14T09:33:30.295Z,17.50
2022-09-14T09:36:00.297Z,17.50
2022-09-14T09:38:47.573Z,17.50
2022-09-14T09:41:20.935Z,17.50
2022-09-14T09:43:59.395Z,17.50
2022-09-14T09:46:30.107Z,17.40
2022-09-14T09:49:00.179Z,17.40
2022-09-14T09:51:29.748Z,17.50
2022-09-14T09:54:00.730Z,17.50
2022-09-14T09:56:32.903Z,17.40
2022-09-14T09:59:01.785Z,17.30
2022-09-14T10:01:32.449Z,17.30
2022-09-14T10:04:19.554Z,17.40
2022-09-14T10:06:49.758Z,17.40
2022-09-14T10:09:19.708Z,17.60
2022-09-14T10:12:06.498Z,17.50
2022-09-14T10:14:40.570Z,17.50
2022-09-14T10:17:21.069Z,17.60
2022-09-14T10:19:51.699Z,17.60
2022-09-14T10:22:38.490Z,17.70
2022-09-14T10:25:25.317Z,17.70
2022-09-14T10:27:59.218Z,17.70
2022-09-14T10:30:30.827Z,17.60
2022-09-14T10:33:01.309Z,17.40
2022-09-14T10:35:34.139Z,17.30
2022-09-14T10:38:12.260Z,17.30
2022-09-14T10:40:45.141Z,17.30
2022-09-14T10:43:16.706Z,17.20
2022-09-14T10:45:53.041Z,17.30
2022-09-14T10:48:30.449Z,17.20
2022-09-14T10:51:03.094Z,17.30
2022-09-14T10:53:41.820Z,17.20
2022-09-14T10:56:12.305Z,17.30
2022-09-14T10:58:49.317Z,17.30
2022-09-14T11:01:25.932Z,17.30
2022-09-14T11:04:03.350Z,17.20
2022-09-14T11:06:37.118Z,17.10
2022-09-14T11:09:07.985Z,17.00
2022-09-14T11:11:44.329Z,17.10
2022-09-14T11:14:17.827Z,17.00
2022-09-14T11:16:53.309Z,16.80
2022-09-14T11:19:27.317Z,16.80
2022-09-14T11:21:58.685Z,16.80
2022-09-14T11:24:31.164Z,16.80
2022-09-14T11:27:02.776Z,16.80
2022-09-14T11:29:32.664Z,16.70
2022-09-14T11:32:21.434Z,16.70
2022-09-14T11:34:54.998Z,16.70
2022-09-14T11:37:28.235Z,16.90
2022-09-14T11:40:05.491Z,16.90
2022-09-14T11:42:36.391Z,16.80
2022-09-14T11:45:09.017Z,16.80
2022-09-14T11:47:42.350Z,16.90
2022-09-14T11:50:16.868Z,17.00
2022-09-14T11:52:45.563Z,17.00
2022-09-14T11:55:17.309Z,17.00
2022-09-14T11:57:46.392Z,17.10
2022-09-14T12:00:44.751Z,16.80
2022-09-14T12:03:20.535Z,16.70
2022-09-14T12:05:51.321Z,16.70
2022-09-14T12:08:38.551Z,16.80
2022-09-14T12:11:22.539Z,16.70
2022-09-14T12:13:51.105Z,16.80
2022-09-14T12:16:20.235Z,16.80
2022-09-14T12:18:56.844Z,16.80
2022-09-14T12:21:27.420Z,16.70
2022-09-14T12:23:58.030Z,16.80
2022-09-14T12:26:31.498Z,16.70
2022-09-14T12:29:04.138Z,16.70
2022-09-14T12:31:56.895Z,16.70
2022-09-14T12:34:27.741Z,16.60
2022-09-14T12:37:07.549Z,16.70
2022-09-14T12:39:38.679Z,16.70
2022-09-14T12:42:25.311Z,16.70
2022-09-14T12:44:54.325Z,16.60
2022-09-14T12:47:51.648Z,16.70
2022-09-14T12:50:22.300Z,16.70
2022-09-14T12:53:07.209Z,16.60
2022-09-14T12:55:45.995Z,16.70
2022-09-14T12:58:20.649Z,16.70
2022-09-14T13:00:56.009Z,16.70
2022-09-14T13:03:33.167Z,16.80
2022-09-14T13:06:03.509Z,16.80
2022-09-14T13:08:33.900Z,16.70
2022-09-14T13:11:02.350Z,16.60
2022-09-14T13:13:32.936Z,16.60
2022-09-14T13:16:02.689Z,16.60
2022-09-14T13:18:32.658Z,16.60
2022-09-14T13:21:03.396Z,16.60
2022-09-14T13:23:33.699Z,16.60
2022-09-14T13:26:09.615Z,16.60
2022-09-14T13:28:39.069Z,16.60
2022-09-14T13:31:07.419Z,16.60
2022-09-14T13:33:36.232Z,16.70
2022-09-14T13:36:07.718Z,16.70
2022-09-14T13:38:38.312Z,16.60
2022-09-14T13:41:08.013Z,16.70
2022-09-14T13:43:37.295Z,16.60
2022-09-14T13:46:08.226Z,16.70
2022-09-14T13:48:42.863Z,16.60
2022-09-14T13:51:19.762Z,16.60
2022-09-14T13:54:23.125Z,16.70
2022-09-14T13:57:12.256Z,16.70
2022-09-14T13:59:55.838Z,16.80
2022-09-14T14:02:24.373Z,16.60
2022-09-14T14:04:52.899Z,16.60
2022-09-14T14:07:33.259Z,16.70
2022-09-14T14:10:03.981Z,16.70
2022-09-14T14:12:51.207Z,16.60
2022-09-14T14:15:38.819Z,16.60
2022-09-14T14:18:25.250Z,16.50
2022-09-14T14:20:53.860Z,16.50
2022-09-14T14:23:25.107Z,16.50
2022-09-14T14:25:57.407Z,16.50
2022-09-14T14:28:44.544Z,16.60
2022-09-14T14:31:31.728Z,16.70
2022-09-14T14:34:00.020Z,16.80
2022-09-14T14:36:28.609Z,16.80
2022-09-14T14:39:00.707Z,16.70
2022-09-14T14:41:29.159Z,16.50
2022-09-14T14:43:57.249Z,16.50
2022-09-14T14:46:25.537Z,16.30
2022-09-14T14:48:53.850Z,16.30
2022-09-14T14:51:58.558Z,16.30
2022-09-14T14:54:29.226Z,16.30
2022-09-14T14:56:57.637Z,16.40
2022-09-14T14:59:46.289Z,16.40
2022-09-14T15:02:14.420Z,16.40
2022-09-14T15:04:42.579Z,16.30
2022-09-14T15:07:10.761Z,16.40
2022-09-14T15:09:40.318Z,16.40
2022-09-14T15:12:09.652Z,16.40
2022-09-14T15:14:38.225Z,16.50
2022-09-14T15:17:06.618Z,16.50
2022-09-14T15:19:34.969Z,16.50
2022-09-14T15:22:03.155Z,16.50
2022-09-14T15:24:31.559Z,16.40
2022-09-14T15:27:01.378Z,16.40
2022-09-14T15:29:29.630Z,16.30
2022-09-14T15:31:59.112Z,16.30
2022-09-14T15:34:27.841Z,16.20
2022-09-14T15:36:57.605Z,16.10
2022-09-14T15:39:26.640Z,16.10
2022-09-14T15:41:55.954Z,16.00
2022-09-14T15:44:25.990Z,15.90
2022-09-14T15:46:54.775Z,15.90
2022-09-14T15:49:23.989Z,16.10
2022-09-14T15:51:52.846Z,16.00
2022-09-14T15:54:23.291Z,15.90
2022-09-14T15:56:59.909Z,15.90
2022-09-14T15:59:30.069Z,15.80
2022-09-14T16:01:58.305Z,15.90
2022-09-14T16:04:27.719Z,15.80
2022-09-14T16:06:55.941Z,15.80
2022-09-14T16:09:24.068Z,15.90
2022-09-14T16:11:54.388Z,15.80
2022-09-14T16:14:26.770Z,15.80
2022-09-14T16:17:14.139Z,15.80
2022-09-14T16:19:43.786Z,15.80
2022-09-14T16:22:11.978Z,15.80
2022-09-14T16:24:40.171Z,15.80
2022-09-14T16:27:08.889Z,15.70
2022-09-14T16:29:37.039Z,15.80
2022-09-14T16:32:05.673Z,15.80
2022-09-14T16:34:34.291Z,15.80
2022-09-14T16:37:05.361Z,15.80
2022-09-14T16:39:35.161Z,15.70
2022-09-14T16:42:03.680Z,15.80
2022-09-14T16:44:33.178Z,15.80
2022-09-14T16:47:02.759Z,15.70
2022-09-14T16:49:31.259Z,15.70
2022-09-14T16:52:18.436Z,15.70
2022-09-14T16:54:52.996Z,15.60
2022-09-14T16:57:27.210Z,15.70
2022-09-14T16:59:55.351Z,15.70
2022-09-14T17:02:23.427Z,15.60
2022-09-14T17:04:51.721Z,15.60
2022-09-14T17:07:21.558Z,15.40
2022-09-14T17:09:52.527Z,15.40
2022-09-14T17:12:20.689Z,15.30
2022-09-14T17:14:50.849Z,15.30
2022-09-14T17:17:19.434Z,15.30
2022-09-14T17:19:47.655Z,15.30
2022-09-14T17:22:18.377Z,15.30
2022-09-14T17:24:47.888Z,15.30
2022-09-14T17:27:18.954Z,15.20
2022-09-14T17:29:47.449Z,15.20
2022-09-14T17:32:15.665Z,15.30
2022-09-14T17:34:44.238Z,15.20
2022-09-14T17:37:12.405Z,15.20
2022-09-14T17:39:41.937Z,15.30
2022-09-14T17:42:10.105Z,15.30
2022-09-14T17:44:41.102Z,15.30
2022-09-14T17:47:09.573Z,15.30
2022-09-14T17:49:38.032Z,15.30
2022-09-14T17:52:06.588Z,15.10
2022-09-14T17:54:53.429Z,15.40
2022-09-14T17:57:22.059Z,15.30
2022-09-14T17:59:51.889Z,15.30
2022-09-14T18:02:20.941Z,15.20
2022-09-14T18:04:50.350Z,15.20
2022-09-14T18:07:19.010Z,15.20
2022-09-14T18:09:49.523Z,15.20
2022-09-14T18:12:20.425Z,15.10
2022-09-14T18:14:49.503Z,15.10
2022-09-14T18:17:20.913Z,15.00
2022-09-14T18:19:54.362Z,15.10
2022-09-14T18:22:22.771Z,15.00
2022-09-14T18:24:52.015Z,15.00
2022-09-14T18:27:22.396Z,14.90
2022-09-14T18:29:52.115Z,14.90
2022-09-14T18:32:23.590Z,14.80
2022-09-14T18:34:54.019Z,14.80
2022-09-14T18:37:23.100Z,14.80
2022-09-14T18:39:51.872Z,14.80
2022-09-14T18:42:20.517Z,14.80
2022-09-14T18:44:54.207Z,14.90
2022-09-14T18:47:24.768Z,14.90
2022-09-14T18:49:54.848Z,14.90
2022-09-14T18:52:23.842Z,14.90
2022-09-14T18:54:54.488Z,14.90
2022-09-14T18:57:23.020Z,14.80
2022-09-14T18:59:52.189Z,14.80
2022-09-14T19:02:22.931Z,14.80
2022-09-14T19:04:54.173Z,14.80
2022-09-14T19:07:22.507Z,14.80
2022-09-14T19:09:51.518Z,14.70
2022-09-14T19:12:19.650Z,14.70
2022-09-14T19:14:47.910Z,14.80
2022-09-14T19:17:16.936Z,14.80
2022-09-14T19:20:05.778Z,14.80
2022-09-14T19:22:35.567Z,14.80
2022-09-14T19:25:04.272Z,14.70
2022-09-14T19:27:51.284Z,14.70
2022-09-14T19:30:20.102Z,14.80
2022-09-14T19:32:48.570Z,14.70
2022-09-14T19:35:18.339Z,14.70
2022-09-14T19:37:49.038Z,14.60
2022-09-14T19:40:35.767Z,14.70
2022-09-14T19:43:04.553Z,14.80
2022-09-14T19:45:32.795Z,14.80
2022-09-14T19:48:00.879Z,14.80
2022-09-14T19:50:28.956Z,14.80
2022-09-14T19:53:02.546Z,14.80
2022-09-14T19:56:09.177Z,14.80
2022-09-14T19:58:37.785Z,14.80
2022-09-14T20:01:09.085Z,14.90
2022-09-14T20:03:39.119Z,14.90
2022-09-14T20:06:43.888Z,14.90
2022-09-14T20:09:15.945Z,14.90
2022-09-14T20:11:45.061Z,14.90
2022-09-14T20:14:14.280Z,14.80
2022-09-14T20:16:42.927Z,14.80
2022-09-14T20:19:11.882Z,14.90
2022-09-14T20:21:41.532Z,14.90
2022-09-14T20:24:16.243Z,14.80
2022-09-14T20:26:48.378Z,14.80
2022-09-14T20:29:17.193Z,14.80
2022-09-14T20:31:45.620Z,14.80
2022-09-14T20:34:14.098Z,14.90
2022-09-14T20:36:42.471Z,14.90
2022-09-14T20:39:10.578Z,14.80
2022-09-14T20:41:40.357Z,14.80
2022-09-14T20:44:10.001Z,14.90
2022-09-14T20:46:39.502Z,14.80
2022-09-14T20:49:10.304Z,14.80
2022-09-14T20:51:38.930Z,14.80
2022-09-14T20:54:07.791Z,14.80
2022-09-14T20:56:38.009Z,14.70
2022-09-14T20:59:07.348Z,14.70
2022-09-14T21:01:38.115Z,14.70
2022-09-14T21:04:06.940Z,14.70
2022-09-14T21:06:36.428Z,14.70
2022-09-14T21:09:04.845Z,14.70
2022-09-14T21:11:33.036Z,14.80
2022-09-14T21:14:03.576Z,14.80
2022-09-14T21:16:33.065Z,14.90
2022-09-14T21:19:05.754Z,14.90
2022-09-14T21:21:35.078Z,14.90
2022-09-14T21:24:06.040Z,14.90
2022-09-14T21:26:35.597Z,14.90
2022-09-14T21:29:06.920Z,14.90
2022-09-14T21:31:35.922Z,14.80
2022-09-14T21:34:07.376Z,14.90
2022-09-14T21:36:37.919Z,14.80
2022-09-14T21:39:09.419Z,14.80
2022-09-14T21:41:38.655Z,14.90
2022-09-14T21:44:08.329Z,14.90
2022-09-14T21:46:36.518Z,14.90
2022-09-14T21:49:06.588Z,14.90
2022-09-14T21:51:37.100Z,14.90
2022-09-14T21:54:06.615Z,15.00
2022-09-14T21:56:37.380Z,14.90
2022-09-14T21:59:06.865Z,14.90
2022-09-14T22:01:35.364Z,14.90
2022-09-14T22:04:06.786Z,14.90
2022-09-14T22:06:36.033Z,14.90
2022-09-14T22:09:04.800Z,14.90
2022-09-14T22:11:35.740Z,14.90
2022-09-14T22:14:09.848Z,14.90
2022-09-14T22:16:38.932Z,14.90
2022-09-14T22:19:09.989Z,14.90
2022-09-14T22:21:39.044Z,14.90
2022-09-14T22:24:08.140Z,15.00
2022-09-14T22:26:36.845Z,14.90
2022-09-14T22:29:05.545Z,14.90
2022-09-14T22:31:34.060Z,14.80
2022-09-14T22:34:02.218Z,14.80
2022-09-14T22:36:31.935Z,14.80
2022-09-14T22:39:01.328Z,14.80
2022-09-14T22:41:29.698Z,14.70
2022-09-14T22:43:58.212Z,14.80
2022-09-14T22:46:26.774Z,14.80
2022-09-14T22:48:56.238Z,14.80
2022-09-14T22:51:25.221Z,14.80
2022-09-14T22:53:54.799Z,14.70
2022-09-14T22:56:23.980Z,14.80
2022-09-14T22:58:54.308Z,14.80
2022-09-14T23:01:23.737Z,14.90
2022-09-14T23:03:55.776Z,14.90
2022-09-14T23:06:26.539Z,14.90
2022-09-14T23:08:56.206Z,14.80
2022-09-14T23:11:24.348Z,14.80
2022-09-14T23:13:52.532Z,14.80
2022-09-14T23:16:21.231Z,14.80
2022-09-14T23:18:51.386Z,14.80
2022-09-14T23:21:20.043Z,14.80
2022-09-14T23:23:51.653Z,14.80
2022-09-14T23:26:21.285Z,14.80
2022-09-14T23:28:52.196Z,14.80
2022-09-14T23:31:20.435Z,14.80
2022-09-14T23:33:50.617Z,14.80
2022-09-14T23:36:18.726Z,14.80
2022-09-14T23:38:48.138Z,14.70
2022-09-14T23:41:16.376Z,14.80
2022-09-14T23:43:46.080Z,14.70
2022-09-14T23:46:14.425Z,14.80
2022-09-14T23:48:43.667Z,14.70
2022-09-14T23:51:12.480Z,14.70
2022-09-14T23:53:42.916Z,14.70
2022-09-14T23:56:11.764Z,14.80
2022-09-14T23:58:39.946Z,14.80
